Time;durP1;ratioP1;P1;durP2;ratioP2;P2;SDS_P1;SDS_P2;PMS_P1;PMS_P2;Temp;Humidity;BMP_temperature;BMP_pressure;BME280_temperature;BME280_humidity;BME280_pressure;Samples;Min_cycle;Max_cycle;Signal;HPM_P1;HPM_P2
2023/12/18 00:00:17;;;;;;;2.57;1.40;;;5.70;99.90;5.40;101999.00;;;;4929502;28;89315;-70
2023/12/18 00:02:44;;;;;;;1.40;1.10;;;5.60;99.90;5.40;101991.00;;;;4929768;28;87864;-71
2023/12/18 00:05:09;;;;;;;1.80;1.30;;;5.80;99.90;5.30;101994.00;;;;4942267;28;87878;-70
2023/12/18 00:07:35;;;;;;;2.57;1.03;;;6.10;99.90;5.30;101995.00;;;;4929207;28;87839;-70
2023/12/18 00:10:01;;;;;;;5.13;1.20;;;5.60;99.90;5.30;101991.00;;;;4914198;28;110177;-70
2023/12/18 00:12:26;;;;;;;2.67;1.60;;;5.50;99.90;5.30;101986.00;;;;4931153;28;108406;-69
2023/12/18 00:14:52;;;;;;;2.00;1.50;;;5.50;99.90;5.30;101978.00;;;;4928072;28;88440;-72
2023/12/18 00:17:18;;;;;;;1.33;1.13;;;6.00;99.90;5.30;101965.00;;;;4927791;28;88470;-72
2023/12/18 00:19:44;;;;;;;3.57;2.17;;;6.30;99.90;5.40;101955.00;;;;4931628;28;87888;-71
2023/12/18 00:22:09;;;;;;;1.93;1.20;;;5.50;99.90;5.50;101957.00;;;;4933479;28;88965;-71
2023/12/18 00:24:35;;;;;;;2.10;1.40;;;5.40;99.90;5.60;101950.00;;;;4938173;28;88142;-71
2023/12/18 00:27:01;;;;;;;5.30;1.23;;;5.70;99.90;5.70;101955.00;;;;4928436;28;117561;-71
2023/12/18 00:29:27;;;;;;;3.30;1.50;;;5.80;99.90;5.80;101945.00;;;;4933139;28;109395;-71
2023/12/18 00:31:53;;;;;;;3.03;1.63;;;5.90;99.90;5.80;101947.00;;;;4931838;28;87632;-71
2023/12/18 00:34:18;;;;;;;1.70;1.30;;;6.10;99.90;5.90;101953.00;;;;4930090;28;93563;-70
2023/12/18 00:36:44;;;;;;;4.33;2.03;;;6.00;99.90;5.90;101947.00;;;;4931087;28;87898;-71
2023/12/18 00:39:11;;;;;;;2.27;1.67;;;6.10;99.90;6.00;101934.00;;;;4927937;28;87097;-72
2023/12/18 00:41:37;;;;;;;1.63;1.53;;;6.10;99.90;6.10;101941.00;;;;4929649;28;87456;-70
2023/12/18 00:44:03;;;;;;;1.27;1.13;;;6.20;99.90;6.10;101941.00;;;;4930346;28;119420;-72
2023/12/18 00:46:29;;;;;;;2.27;1.77;;;6.20;99.90;6.10;101931.00;;;;4929727;28;88315;-71
2023/12/18 00:48:54;;;;;;;2.17;1.40;;;6.30;99.90;6.10;101938.00;;;;4929488;28;87611;-71
2023/12/18 00:51:20;;;;;;;1.40;1.13;;;6.40;99.90;6.10;101924.00;;;;4926939;28;108236;-73
2023/12/18 00:53:46;;;;;;;1.60;1.50;;;6.30;99.90;6.20;101925.00;;;;4929587;28;117808;-72
2023/12/18 00:56:12;;;;;;;1.00;0.93;;;6.30;99.90;6.20;101926.00;;;;4940891;28;115927;-73
2023/12/18 00:58:38;;;;;;;1.80;1.23;;;6.40;99.90;6.20;101911.00;;;;4933359;28;87483;-72
2023/12/18 01:01:04;;;;;;;3.07;1.57;;;6.40;99.90;6.20;101914.00;;;;4928693;28;107355;-73
2023/12/18 01:03:30;;;;;;;1.67;1.27;;;6.40;99.90;6.20;101915.00;;;;4928932;28;117199;-71
2023/12/18 01:05:56;;;;;;;3.00;1.87;;;6.40;99.90;6.20;101914.00;;;;4927184;28;107104;-70
2023/12/18 01:08:24;;;;;;;2.03;1.50;;;6.40;99.90;6.20;101903.00;;;;4928678;28;87925;-71
2023/12/18 01:10:50;;;;;;;2.57;1.30;;;6.40;99.90;6.20;101910.00;;;;4927868;28;108628;-70
2023/12/18 01:13:15;;;;;;;1.10;1.00;;;6.40;99.90;6.20;101917.00;;;;4928452;28;118093;-72
2023/12/18 01:15:41;;;;;;;1.67;1.13;;;6.30;99.90;6.10;101920.00;;;;4931569;28;116462;-72
2023/12/18 01:18:07;;;;;;;1.47;1.23;;;6.30;99.90;6.10;101927.00;;;;4933067;28;100931;-71
2023/12/18 01:20:33;;;;;;;3.27;1.27;;;6.30;99.90;6.10;101934.00;;;;4918510;28;87650;-71
2023/12/18 01:22:58;;;;;;;1.93;1.33;;;6.30;99.90;6.10;101931.00;;;;4928612;28;100468;-71
2023/12/18 01:25:24;;;;;;;2.67;1.53;;;6.90;99.90;6.00;101936.00;;;;4927785;28;117333;-70
2023/12/18 01:27:50;;;;;;;1.43;1.03;;;6.20;99.90;6.00;101943.00;;;;4929598;28;95466;-71
2023/12/18 01:30:15;;;;;;;1.80;1.70;;;6.20;99.90;6.00;101946.00;;;;4927994;28;106216;-70
2023/12/18 01:32:43;;;;;;;0.97;0.93;;;6.20;99.90;5.90;101932.00;;;;4929752;28;116886;-73
2023/12/18 01:35:08;;;;;;;1.80;1.47;;;6.20;99.90;5.90;101928.00;;;;4944008;28;116720;-71
2023/12/18 01:37:34;;;;;;;1.80;1.10;;;6.10;99.90;5.90;101927.00;;;;4934076;28;110703;-72
2023/12/18 01:40:00;;;;;;;2.50;1.77;;;6.10;99.90;5.80;101935.00;;;;4932870;28;109902;-70
2023/12/18 01:42:26;;;;;;;2.13;1.40;;;6.60;99.90;5.80;101924.00;;;;4929946;28;88338;-73
2023/12/18 01:44:52;;;;;;;1.87;1.33;;;6.30;99.90;5.80;101927.00;;;;4923968;28;117181;-71
2023/12/18 01:47:17;;;;;;;2.20;1.33;;;6.00;99.90;5.80;101924.00;;;;4926331;28;108228;-70
2023/12/18 01:49:44;;;;;;;1.23;1.13;;;6.00;99.90;5.80;101921.00;;;;4928294;28;106582;-69
2023/12/18 01:52:10;;;;;;;3.57;1.33;;;6.00;99.90;5.70;101926.00;;;;4928052;28;89196;-70
2023/12/18 01:54:36;;;;;;;2.73;1.87;;;6.50;99.90;5.60;101917.00;;;;4925745;28;116048;-70
2023/12/18 01:57:03;;;;;;;1.70;1.53;;;5.80;99.90;5.50;101913.00;;;;4942716;28;92341;-71
2023/12/18 01:59:32;;;;;;;2.33;1.50;;;5.80;99.90;5.40;101912.00;;;;4927498;28;88856;-71
2023/12/18 02:01:58;;;;;;;2.27;1.70;;;5.70;99.90;5.30;101902.00;;;;4928415;28;117281;-70
2023/12/18 02:04:24;;;;;;;2.33;1.30;;;6.30;99.90;5.30;101904.00;;;;4941790;28;117913;-70
2023/12/18 02:06:50;;;;;;;1.90;1.00;;;5.40;99.90;5.10;101906.00;;;;4931963;28;111894;-70
2023/12/18 02:09:16;;;;;;;3.00;1.30;;;6.10;99.90;5.00;101912.00;;;;4928501;28;108124;-71
2023/12/18 02:11:45;;;;;;;3.90;1.50;;;5.40;99.90;5.00;101914.00;;;;4927314;28;117604;-71
2023/12/18 02:14:12;;;;;;;1.47;1.37;;;6.00;99.90;4.90;101910.00;;;;4923549;28;88250;-70
2023/12/18 02:16:37;;;;;;;2.23;1.47;;;5.10;99.90;4.80;101900.00;;;;4947129;28;87318;-70
2023/12/18 02:19:03;;;;;;;1.20;1.00;;;5.00;99.90;4.70;101890.00;;;;4934220;28;108832;-71
2023/12/18 02:21:29;;;;;;;1.10;0.80;;;5.70;99.90;4.70;101904.00;;;;4931757;28;117286;-70
2023/12/18 02:23:54;;;;;;;6.33;1.43;;;4.90;99.90;4.60;101898.00;;;;4930913;28;116876;-71
2023/12/18 02:26:21;;;;;;;1.80;1.13;;;4.90;99.90;4.50;101888.00;;;;4928950;28;110430;-71
2023/12/18 02:28:47;;;;;;;1.40;1.30;;;5.00;99.90;4.40;101879.00;;;;4927835;28;109101;-71
2023/12/18 02:31:14;;;;;;;1.50;1.23;;;4.70;99.90;4.30;101884.00;;;;4931731;28;90479;-70
2023/12/18 02:33:41;;;;;;;2.40;1.40;;;4.60;99.90;4.30;101876.00;;;;4929204;28;87637;-71
2023/12/18 02:36:07;;;;;;;5.27;1.10;;;4.50;99.90;4.20;101873.00;;;;4936911;28;87896;-70
2023/12/18 02:38:33;;;;;;;1.47;1.23;;;4.40;99.90;4.10;101874.00;;;;4935516;28;87883;-71
2023/12/18 02:40:58;;;;;;;1.83;1.60;;;4.70;99.90;4.10;101876.00;;;;4938324;28;107530;-71
2023/12/18 02:43:24;;;;;;;1.37;1.13;;;4.30;99.90;4.00;101878.00;;;;4921758;28;117367;-70
2023/12/18 02:45:50;;;;;;;1.13;0.77;;;4.30;99.90;4.00;101872.00;;;;4935664;28;109190;-70
2023/12/18 02:48:15;;;;;;;3.13;1.17;;;4.30;99.90;3.90;101876.00;;;;4933939;28;88758;-71
2023/12/18 02:50:41;;;;;;;1.40;1.20;;;4.20;99.90;3.90;101871.00;;;;4927122;28;103818;-71
2023/12/18 02:53:07;;;;;;;1.90;1.00;;;4.10;99.90;3.80;101870.00;;;;4929391;28;117439;-71
2023/12/18 02:55:32;;;;;;;1.00;0.90;;;4.20;99.90;3.80;101869.00;;;;4934996;28;103055;-71
2023/12/18 02:57:59;;;;;;;2.57;1.80;;;4.10;99.90;3.80;101860.00;;;;4928967;28;107422;-71
2023/12/18 03:00:25;;;;;;;2.50;1.50;;;4.10;99.90;3.70;101864.00;;;;4930304;28;104283;-70
2023/12/18 03:02:51;;;;;;;1.83;1.20;;;3.90;99.90;3.70;101843.00;;;;4927664;28;119109;-71
2023/12/18 03:05:19;;;;;;;1.30;1.20;;;3.90;99.90;3.70;101848.00;;;;4932008;28;88829;-71
2023/12/18 03:07:45;;;;;;;1.27;1.17;;;3.90;99.90;3.70;101829.00;;;;4932743;28;87549;-71
2023/12/18 03:10:11;;;;;;;3.83;1.43;;;4.00;99.90;3.70;101837.00;;;;4934609;28;88823;-71
2023/12/18 03:12:36;;;;;;;2.10;1.90;;;4.60;99.90;3.80;101846.00;;;;4932430;28;88784;-70
2023/12/18 03:15:02;;;;;;;1.87;1.53;;;4.00;99.90;3.80;101848.00;;;;4931041;28;110171;-71
2023/12/18 03:17:28;;;;;;;2.00;1.20;;;4.10;99.90;3.90;101844.00;;;;4931778;28;87709;-70
2023/12/18 03:19:54;;;;;;;2.43;1.50;;;4.10;99.90;3.90;101838.00;;;;4929549;28;87940;-70
2023/12/18 03:22:19;;;;;;;1.57;1.23;;;4.10;99.90;3.90;101843.00;;;;4917936;28;90018;-70
2023/12/18 03:24:45;;;;;;;1.87;1.40;;;4.20;99.90;3.90;101847.00;;;;4912902;28;109565;-71
2023/12/18 03:27:11;;;;;;;1.67;1.57;;;4.20;99.90;3.90;101849.00;;;;4929860;28;88097;-71
2023/12/18 03:29:37;;;;;;;2.33;1.90;;;4.10;99.90;3.90;101862.00;;;;4929252;28;90878;-70
2023/12/18 03:32:03;;;;;;;1.70;1.47;;;4.70;99.90;3.90;101870.00;;;;4933182;28;89760;-70
2023/12/18 03:34:30;;;;;;;2.17;1.40;;;4.10;99.90;3.80;101876.00;;;;4942410;28;87597;-70
2023/12/18 03:36:56;;;;;;;1.30;1.20;;;4.10;99.90;3.70;101879.00;;;;4934770;28;88784;-70
2023/12/18 03:39:21;;;;;;;2.50;2.07;;;4.00;99.90;3.60;101882.00;;;;4927046;28;117826;-70
2023/12/18 03:41:47;;;;;;;1.90;1.73;;;3.80;99.90;3.60;101869.00;;;;4928669;28;117511;-70
2023/12/18 03:44:12;;;;;;;2.40;1.30;;;3.90;99.90;3.50;101870.00;;;;4932069;28;109451;-68
2023/12/18 03:46:38;;;;;;;2.00;1.77;;;3.80;99.90;3.50;101870.00;;;;4929922;28;108163;-69
2023/12/18 03:49:04;;;;;;;3.33;1.60;;;3.80;99.90;3.50;101869.00;;;;4931517;28;116718;-71
2023/12/18 03:51:29;;;;;;;3.00;1.87;;;3.70;99.90;3.50;101864.00;;;;4932853;28;117743;-69
2023/12/18 03:53:55;;;;;;;4.27;1.57;;;3.70;99.90;3.40;101873.00;;;;4933272;28;109170;-69
2023/12/18 03:56:21;;;;;;;6.00;1.77;;;3.70;99.90;3.40;101872.00;;;;4931706;28;107753;-69
2023/12/18 03:58:47;;;;;;;1.87;1.43;;;3.70;99.90;3.40;101885.00;;;;4927833;28;120172;-69
2023/12/18 04:01:18;;;;;;;3.27;1.93;;;4.30;99.90;3.40;101880.00;;;;4925238;28;117790;-69
2023/12/18 04:03:44;;;;;;;2.07;1.47;;;3.90;99.90;3.40;101871.00;;;;4925133;28;95066;-69
2023/12/18 04:06:10;;;;;;;1.77;1.40;;;3.60;99.90;3.40;101878.00;;;;4925396;28;106691;-69
2023/12/18 04:08:36;;;;;;;1.70;1.50;;;3.70;99.90;3.40;101858.00;;;;4927121;28;116854;-72
2023/12/18 04:11:03;;;;;;;2.57;1.30;;;3.30;99.90;3.40;101870.00;;;;4930463;28;87666;-71
2023/12/18 04:13:28;;;;;;;1.67;1.20;;;3.70;99.90;3.50;101861.00;;;;4932232;28;88175;-72
2023/12/18 04:15:54;;;;;;;1.93;1.40;;;3.70;99.90;3.50;101872.00;;;;4928418;28;107405;-72
2023/12/18 04:18:20;;;;;;;1.63;1.30;;;3.50;99.90;3.50;101865.00;;;;4928940;28;116715;-72
2023/12/18 04:20:45;;;;;;;1.77;1.67;;;4.10;99.90;3.50;101860.00;;;;4929027;28;117036;-75
2023/12/18 04:23:11;;;;;;;2.63;1.73;;;3.00;99.90;3.50;101869.00;;;;4927501;28;103222;-72
2023/12/18 04:25:37;;;;;;;1.70;1.60;;;3.80;99.90;3.50;101853.00;;;;4912321;28;88825;-72
2023/12/18 04:28:03;;;;;;;2.27;1.67;;;3.80;99.90;3.50;101864.00;;;;4930512;28;89467;-73
2023/12/18 04:30:30;;;;;;;2.67;1.53;;;3.80;99.90;3.50;101871.00;;;;4931701;28;88208;-74
2023/12/18 04:32:55;;;;;;;1.77;1.67;;;3.70;99.90;3.50;101863.00;;;;4927597;28;97276;-75
2023/12/18 04:35:21;;;;;;;1.67;1.57;;;4.10;99.90;3.50;101864.00;;;;4931468;28;112105;-75
2023/12/18 04:37:47;;;;;;;2.10;1.50;;;3.70;99.90;3.50;101860.00;;;;4908849;28;117459;-74
2023/12/18 04:40:12;;;;;;;2.07;1.87;;;3.80;99.90;3.50;101857.00;;;;4924561;28;88891;-74
2023/12/18 04:42:38;;;;;;;2.67;2.00;;;4.40;99.90;3.50;101852.00;;;;4929944;28;86861;-74
2023/12/18 04:45:04;;;;;;;2.27;1.43;;;3.70;99.90;3.50;101860.00;;;;4927898;28;88031;-74
2023/12/18 04:47:30;;;;;;;2.23;2.03;;;3.70;99.90;3.50;101864.00;;;;4922535;28;88136;-74
2023/12/18 04:49:56;;;;;;;3.90;1.83;;;3.70;99.90;3.40;101870.00;;;;4931728;28;102285;-74
2023/12/18 04:52:21;;;;;;;3.30;1.70;;;3.70;99.90;3.40;101870.00;;;;4929293;28;110622;-74
2023/12/18 04:54:47;;;;;;;2.00;1.53;;;3.70;99.90;3.40;101876.00;;;;4930309;28;87616;-73
2023/12/18 04:57:13;;;;;;;3.27;1.97;;;3.70;99.90;3.30;101880.00;;;;4924553;28;116341;-73
2023/12/18 04:59:39;;;;;;;2.30;2.00;;;3.60;99.90;3.30;101870.00;;;;4931608;28;88413;-74
2023/12/18 05:02:04;;;;;;;1.90;1.43;;;5.10;99.90;3.30;101870.00;;;;4924409;28;87442;-72
2023/12/18 05:04:30;;;;;;;3.30;1.90;;;4.20;99.90;3.20;101862.00;;;;4930112;28;108446;-73
2023/12/18 05:06:55;;;;;;;3.37;1.90;;;3.60;99.90;3.20;101878.00;;;;4928439;28;116237;-72
2023/12/18 05:09:21;;;;;;;2.47;1.90;;;3.50;99.90;3.20;101878.00;;;;4930681;28;118013;-72
2023/12/18 05:11:47;;;;;;;2.97;1.77;;;4.30;99.90;3.10;101886.00;;;;4933792;28;87886;-73
2023/12/18 05:14:12;;;;;;;3.50;1.70;;;3.50;99.90;3.10;101883.00;;;;4928730;28;107189;-74
2023/12/18 05:16:38;;;;;;;1.70;1.60;;;3.70;99.90;3.00;101874.00;;;;4926964;28;116152;-74
2023/12/18 05:19:04;;;;;;;2.20;1.67;;;3.30;99.90;3.00;101876.00;;;;4926991;28;117285;-74
2023/12/18 05:21:29;;;;;;;1.43;1.20;;;3.30;99.90;2.90;101857.00;;;;4941309;28;109803;-73
2023/12/18 05:23:55;;;;;;;1.70;1.57;;;3.30;99.90;2.90;101863.00;;;;4927433;28;108855;-74
2023/12/18 05:26:21;;;;;;;2.13;1.60;;;3.40;99.90;2.80;101857.00;;;;4928827;28;91258;-73
2023/12/18 05:28:47;;;;;;;2.87;2.53;;;3.10;99.90;2.70;101879.00;;;;4927743;28;89626;-73
2023/12/18 05:31:14;;;;;;;1.83;1.70;;;3.10;99.90;2.70;101882.00;;;;4924908;28;110274;-73
2023/12/18 05:33:46;;;;;;;3.60;1.97;;;2.90;99.90;2.60;101883.00;;;;4944125;28;88570;-73
2023/12/18 05:36:12;;;;;;;2.17;1.60;;;2.90;99.90;2.50;101888.00;;;;4945745;28;87751;-73
2023/12/18 05:38:38;;;;;;;2.90;1.97;;;2.80;99.90;2.50;101894.00;;;;4927603;28;112196;-73
2023/12/18 05:41:03;;;;;;;4.50;2.67;;;2.80;99.90;2.40;101886.00;;;;4926776;28;91265;-73
2023/12/18 05:43:29;;;;;;;1.73;1.63;;;3.60;99.90;2.40;101872.00;;;;4927029;28;108679;-74
2023/12/18 05:45:55;;;;;;;3.17;2.27;;;2.70;99.90;2.40;101873.00;;;;4936458;28;87835;-73
2023/12/18 05:48:20;;;;;;;5.27;2.67;;;2.70;99.90;2.30;101852.00;;;;4929376;28;116837;-73
2023/12/18 05:50:48;;;;;;;2.77;2.20;;;2.50;99.90;2.30;101851.00;;;;4907789;28;110134;-73
2023/12/18 05:53:14;;;;;;;3.17;1.83;;;2.70;99.90;2.40;101843.00;;;;4927020;28;87986;-73
2023/12/18 05:55:40;;;;;;;3.73;2.07;;;2.70;99.90;2.40;101840.00;;;;4922046;28;116796;-73
2023/12/18 05:58:05;;;;;;;2.60;2.40;;;2.70;99.90;2.40;101840.00;;;;4924497;28;115139;-73
2023/12/18 06:00:31;;;;;;;1.27;1.17;;;2.70;99.90;2.40;101842.00;;;;4932695;28;109933;-73
2023/12/18 06:02:57;;;;;;;3.93;1.77;;;2.70;99.90;2.50;101831.00;;;;4923401;28;89425;-73
2023/12/18 06:05:23;;;;;;;2.37;1.80;;;2.80;99.90;2.50;101831.00;;;;4920579;28;88049;-72
2023/12/18 06:07:48;;;;;;;1.87;1.70;;;2.80;99.90;2.60;101840.00;;;;4926458;28;102963;-71
2023/12/18 06:10:14;;;;;;;1.97;1.83;;;2.90;99.90;2.60;101850.00;;;;4925396;28;87819;-71
2023/12/18 06:12:40;;;;;;;7.30;4.53;;;2.60;99.90;2.50;101843.00;;;;4924220;28;92742;-71
2023/12/18 06:15:06;;;;;;;2.97;2.67;;;4.30;99.90;2.40;101854.00;;;;4925833;28;116210;-71
2023/12/18 06:17:32;;;;;;;9.07;4.43;;;2.70;99.90;2.30;101872.00;;;;4920638;28;106916;-71
2023/12/18 06:19:58;;;;;;;6.47;3.60;;;3.00;99.90;2.30;101874.00;;;;4922423;28;105773;-71
2023/12/18 06:22:24;;;;;;;2.83;2.50;;;2.60;99.90;2.20;101873.00;;;;4919494;28;88308;-71
2023/12/18 06:24:50;;;;;;;2.53;1.93;;;3.40;99.90;2.10;101875.00;;;;4936836;28;112549;-71
2023/12/18 06:27:16;;;;;;;2.10;1.93;;;2.50;99.90;2.00;101851.00;;;;4938810;28;90586;-71
2023/12/18 06:29:42;;;;;;;2.03;1.83;;;2.40;99.90;1.90;101851.00;;;;4923067;28;88233;-71
2023/12/18 06:32:09;;;;;;;2.17;1.73;;;2.20;99.90;1.90;101858.00;;;;4925287;28;87465;-71
2023/12/18 06:34:35;;;;;;;2.83;2.13;;;2.20;99.90;1.80;101861.00;;;;4924322;28;88027;-71
2023/12/18 06:37:00;;;;;;;2.13;1.93;;;2.20;99.90;1.80;101870.00;;;;4926203;28;88213;-71
2023/12/18 06:39:26;;;;;;;2.53;1.90;;;2.10;99.90;1.80;101873.00;;;;4923628;28;93005;-71
2023/12/18 06:41:51;;;;;;;4.57;2.67;;;2.10;99.90;1.80;101882.00;;;;4930117;28;108231;-71
2023/12/18 06:44:17;;;;;;;3.23;2.73;;;2.10;99.90;1.70;101879.00;;;;4925218;28;115996;-71
2023/12/18 06:46:43;;;;;;;3.10;2.80;;;2.00;99.90;1.70;101882.00;;;;4921269;28;117245;-71
2023/12/18 06:49:08;;;;;;;5.00;3.63;;;2.00;99.90;1.70;101885.00;;;;4924081;28;108487;-71
2023/12/18 06:51:34;;;;;;;4.17;2.93;;;2.00;99.90;1.70;101885.00;;;;4924016;28;108376;-71
2023/12/18 06:54:00;;;;;;;4.03;2.60;;;2.00;99.90;1.60;101888.00;;;;4924920;28;88059;-71
2023/12/18 06:56:25;;;;;;;4.83;2.63;;;2.00;99.90;1.60;101895.00;;;;4926879;28;110476;-71
2023/12/18 06:58:51;;;;;;;3.57;2.60;;;2.00;99.90;1.50;101906.00;;;;4923861;28;110952;-71
2023/12/18 07:01:17;;;;;;;4.33;2.80;;;1.90;99.90;1.50;101893.00;;;;4922959;28;100120;-71
2023/12/18 07:03:43;;;;;;;2.93;2.73;;;1.90;99.90;1.50;101891.00;;;;4923643;28;90094;-71
2023/12/18 07:06:09;;;;;;;4.17;3.33;;;2.60;99.90;1.40;101887.00;;;;4923197;28;87866;-71
2023/12/18 07:08:35;;;;;;;5.27;3.77;;;1.80;99.90;1.40;101902.00;;;;4913671;28;87598;-71
2023/12/18 07:11:01;;;;;;;4.33;3.17;;;1.80;99.90;1.30;101899.00;;;;4926419;28;107164;-72
2023/12/18 07:13:27;;;;;;;4.20;3.80;;;2.30;99.90;1.30;101911.00;;;;4929446;28;87691;-71
2023/12/18 07:15:52;;;;;;;5.53;3.60;;;2.90;99.90;1.30;101913.00;;;;4928702;28;88726;-71
2023/12/18 07:18:18;;;;;;;6.17;4.77;;;1.60;99.90;1.30;101919.00;;;;4935023;28;87785;-72
2023/12/18 07:20:44;;;;;;;7.17;5.10;;;1.70;99.90;1.30;101929.00;;;;4910179;28;87956;-71
2023/12/18 07:23:10;;;;;;;5.90;4.43;;;1.80;99.90;1.30;101927.00;;;;4922365;28;90924;-71
2023/12/18 07:25:37;;;;;;;5.17;3.17;;;1.70;99.90;1.30;101935.00;;;;4931335;28;88012;-71
2023/12/18 07:28:07;;;;;;;5.13;4.63;;;1.60;99.90;1.40;101932.00;;;;4917260;28;88338;-71
2023/12/18 07:30:33;;;;;;;8.40;5.60;;;1.70;99.90;1.50;101927.00;;;;4921424;28;87674;-71
2023/12/18 07:32:59;;;;;;;5.03;4.33;;;1.80;99.90;1.70;101929.00;;;;4929114;28;106050;-72
2023/12/18 07:35:25;;;;;;;10.40;4.83;;;3.10;99.90;1.80;101933.00;;;;4930817;28;93045;-71
2023/12/18 07:37:51;;;;;;;6.37;4.40;;;2.10;99.90;2.00;101927.00;;;;4924626;28;87708;-71
2023/12/18 07:40:17;;;;;;;9.43;4.90;;;2.30;99.90;2.30;101920.00;;;;4922024;28;110265;-71
2023/12/18 07:42:42;;;;;;;7.23;4.53;;;2.50;99.90;2.50;101924.00;;;;4929484;28;108608;-71
2023/12/18 07:45:09;;;;;;;7.83;4.27;;;2.70;99.90;2.80;101927.00;;;;4924887;28;109921;-71
2023/12/18 07:47:37;;;;;;;4.03;3.60;;;2.90;99.90;3.00;101921.00;;;;4911789;28;87863;-71
2023/12/18 07:50:07;;;;;;;5.93;3.30;;;3.20;99.90;3.30;101918.00;;;;4926885;28;87965;-73
2023/12/18 07:52:33;;;;;;;3.50;3.07;;;4.20;99.90;3.60;101917.00;;;;4943647;28;88067;-72
2023/12/18 07:54:59;;;;;;;4.57;2.97;;;3.70;99.90;3.80;101912.00;;;;4925838;28;87644;-72
2023/12/18 07:57:24;;;;;;;2.77;2.33;;;4.00;99.90;4.10;101915.00;;;;4925702;28;108902;-71
2023/12/18 07:59:50;;;;;;;4.70;2.50;;;4.20;99.90;4.40;101913.00;;;;4921577;28;107834;-71
2023/12/18 08:02:16;;;;;;;4.43;2.47;;;4.80;99.90;4.70;101909.00;;;;4925889;28;109089;-73
2023/12/18 08:04:41;;;;;;;2.60;2.40;;;4.50;99.90;4.90;101911.00;;;;4922715;28;95195;-71
2023/12/18 08:07:07;;;;;;;2.47;2.27;;;5.40;99.90;5.20;101916.00;;;;4926523;28;91337;-74
2023/12/18 08:09:33;;;;;;;3.97;2.27;;;5.30;99.90;5.50;101924.00;;;;4941107;28;94294;-73
2023/12/18 08:11:58;;;;;;;3.43;2.17;;;5.60;99.90;5.70;101933.00;;;;4920753;28;118672;-71
2023/12/18 08:14:24;;;;;;;3.00;2.33;;;5.80;99.90;5.90;101931.00;;;;4914979;28;87962;-71
2023/12/18 08:16:50;;;;;;;2.60;2.00;;;6.00;99.90;6.10;101935.00;;;;4928048;28;87947;-73
2023/12/18 08:19:16;;;;;;;2.40;1.87;;;6.30;99.90;6.40;101933.00;;;;4928468;28;109013;-71
2023/12/18 08:21:43;;;;;;;3.00;1.93;;;6.70;99.90;6.60;101945.00;;;;4919841;28;89499;-74
2023/12/18 08:24:15;;;;;;;3.50;1.70;;;6.70;99.90;6.80;101950.00;;;;4915097;28;88582;-71
2023/12/18 08:26:41;;;;;;;4.17;1.87;;;7.00;99.90;7.10;101949.00;;;;4931768;28;87973;-72
2023/12/18 08:29:07;;;;;;;2.90;1.53;;;7.20;99.90;7.30;101950.00;;;;4923523;28;89367;-73
2023/12/18 08:31:33;;;;;;;2.97;1.67;;;7.50;99.90;7.50;101954.00;;;;4930517;28;89406;-71
2023/12/18 08:33:59;;;;;;;3.03;1.80;;;7.60;99.90;7.70;101945.00;;;;4925610;28;89480;-72
2023/12/18 08:36:25;;;;;;;2.10;1.87;;;7.80;99.90;7.90;101958.00;;;;4928640;28;109730;-71
2023/12/18 08:38:50;;;;;;;1.80;1.13;;;8.00;99.90;8.10;101957.00;;;;4921724;28;107723;-70
2023/12/18 08:41:16;;;;;;;2.53;1.73;;;8.30;99.90;8.30;101962.00;;;;4928807;28;117569;-70
2023/12/18 08:43:43;;;;;;;2.47;1.80;;;9.50;99.90;8.40;101945.00;;;;4920026;28;88042;-72
2023/12/18 08:46:08;;;;;;;2.37;2.00;;;9.70;99.90;8.50;101954.00;;;;4915099;28;87634;-72
2023/12/18 08:48:34;;;;;;;2.47;1.57;;;8.70;99.90;8.60;101964.00;;;;4918522;28;108562;-71
2023/12/18 08:51:00;;;;;;;2.00;1.50;;;8.80;99.90;8.80;101956.00;;;;4927302;28;117074;-71
2023/12/18 08:53:25;;;;;;;1.93;1.70;;;8.90;99.90;9.00;101950.00;;;;4926975;28;115899;-71
2023/12/18 08:55:51;;;;;;;3.20;1.50;;;9.10;99.90;9.10;101967.00;;;;4924663;28;111832;-70
2023/12/18 08:58:17;;;;;;;2.47;1.50;;;9.20;99.90;9.20;101958.00;;;;4945693;28;87771;-71
2023/12/18 09:00:43;;;;;;;1.90;1.37;;;9.40;99.90;9.30;101958.00;;;;4933179;28;88133;-73
2023/12/18 09:03:11;;;;;;;2.33;1.53;;;9.40;99.90;9.50;101961.00;;;;4937300;28;110440;-70
2023/12/18 09:05:37;;;;;;;2.00;1.57;;;9.60;99.90;9.60;101963.00;;;;4929805;28;109220;-70
2023/12/18 09:08:05;;;;;;;2.77;1.70;;;9.70;99.90;9.70;101964.00;;;;4922521;28;108922;-71
2023/12/18 09:10:32;;;;;;;1.67;1.30;;;9.90;99.90;9.90;101957.00;;;;4928933;28;87435;-72
2023/12/18 09:12:58;;;;;;;1.43;1.07;;;10.00;99.90;10.00;101946.00;;;;4927110;28;88033;-72
2023/12/18 09:15:24;;;;;;;2.40;1.80;;;10.10;99.90;10.10;101945.00;;;;4935635;28;111079;-72
2023/12/18 09:17:49;;;;;;;3.73;0.83;;;10.20;99.90;10.20;101955.00;;;;4930790;28;108959;-70
2023/12/18 09:20:15;;;;;;;2.67;1.47;;;10.30;99.90;10.30;101955.00;;;;4927706;28;117878;-70
2023/12/18 09:22:42;;;;;;;1.37;1.10;;;10.40;99.90;10.50;101959.00;;;;4924623;28;88869;-71
2023/12/18 09:25:08;;;;;;;1.00;0.90;;;10.60;99.90;10.60;101959.00;;;;4924605;28;88166;-70
2023/12/18 09:27:33;;;;;;;3.63;1.27;;;10.70;99.90;10.70;101961.00;;;;4927215;28;109467;-73
2023/12/18 09:29:59;;;;;;;2.00;1.47;;;10.80;99.90;10.80;101960.00;;;;4924765;28;117575;-70
2023/12/18 09:32:25;;;;;;;2.93;1.50;;;10.90;99.90;10.90;101965.00;;;;4926298;28;99072;-71
2023/12/18 09:34:50;;;;;;;2.23;1.63;;;11.00;99.90;10.90;101964.00;;;;4931726;28;87277;-71
2023/12/18 09:37:16;;;;;;;2.23;1.20;;;11.00;99.90;10.90;101973.00;;;;4925796;28;103012;-72
2023/12/18 09:39:42;;;;;;;1.60;1.03;;;11.00;99.90;10.90;101973.00;;;;4925178;28;115965;-71
2023/12/18 09:42:12;;;;;;;1.50;1.40;;;11.10;99.90;10.90;101967.00;;;;4910746;28;88662;-73
2023/12/18 09:44:39;;;;;;;1.10;1.00;;;11.10;99.90;10.90;101962.00;;;;4931301;28;87972;-70
2023/12/18 09:47:06;;;;;;;1.43;1.13;;;11.10;99.90;11.00;101975.00;;;;4928616;28;91944;-71
2023/12/18 09:49:32;;;;;;;1.60;1.50;;;11.10;99.90;11.00;101974.00;;;;4929576;28;89640;-70
2023/12/18 09:52:01;;;;;;;1.00;0.90;;;11.10;99.90;11.00;101962.00;;;;4924598;28;88821;-70
2023/12/18 09:54:29;;;;;;;1.37;1.03;;;11.10;99.90;11.00;101966.00;;;;4938340;28;87846;-72
2023/12/18 09:56:56;;;;;;;1.30;1.10;;;11.10;99.90;11.10;101965.00;;;;4924221;28;94389;-70
2023/12/18 09:59:22;;;;;;;2.73;1.30;;;11.20;99.90;11.10;101961.00;;;;4925881;28;88763;-73
2023/12/18 10:01:48;;;;;;;2.60;1.50;;;11.20;99.90;11.20;101954.00;;;;4922191;28;105002;-70
2023/12/18 10:04:14;;;;;;;1.30;1.03;;;11.20;99.90;11.40;101935.00;;;;4922294;28;101946;-73
2023/12/18 10:06:40;;;;;;;2.10;1.60;;;11.30;99.90;11.50;101939.00;;;;4928854;28;103148;-71
2023/12/18 10:09:13;;;;;;;3.00;1.70;;;11.60;99.90;11.60;101936.00;;;;4923785;28;116559;-70
2023/12/18 10:11:44;;;;;;;3.83;2.07;;;11.70;99.90;11.70;101926.00;;;;4930567;28;87975;-73
2023/12/18 10:14:13;;;;;;;2.57;1.90;;;11.80;99.90;11.70;101931.00;;;;4929247;28;88448;-71
2023/12/18 10:16:39;;;;;;;2.23;1.60;;;11.80;99.90;11.70;101924.00;;;;4919905;28;87715;-70
2023/12/18 10:19:06;;;;;;;3.80;2.20;;;11.80;99.90;11.70;101913.00;;;;4928498;28;93591;-70
2023/12/18 10:21:32;;;;;;;2.03;1.60;;;11.80;99.90;11.70;101912.00;;;;4924466;28;87931;-71
2023/12/18 10:23:57;;;;;;;2.43;1.90;;;13.30;99.90;11.80;101920.00;;;;4921307;28;110572;-71
2023/12/18 10:26:23;;;;;;;1.77;1.47;;;11.80;99.90;11.90;101900.00;;;;4927989;28;87882;-73
2023/12/18 10:28:52;;;;;;;3.37;2.00;;;12.00;99.90;12.10;101907.00;;;;4923740;28;117421;-70
2023/12/18 10:31:19;;;;;;;2.00;1.30;;;12.10;99.90;12.20;101900.00;;;;4924973;28;88697;-74
2023/12/18 10:33:45;;;;;;;1.77;1.47;;;12.30;99.90;12.40;101895.00;;;;4944267;28;87917;-70
2023/12/18 10:36:10;;;;;;;4.30;2.17;;;12.40;99.90;12.60;101900.00;;;;4923843;28;109105;-72
2023/12/18 10:38:41;;;;;;;1.93;1.63;;;12.50;99.90;12.70;101900.00;;;;4938635;28;117262;-70
2023/12/18 10:41:09;;;;;;;2.57;1.60;;;12.60;99.90;12.90;101910.00;;;;4931218;28;87736;-73
2023/12/18 10:43:36;;;;;;;3.03;1.43;;;12.90;99.00;13.00;101910.00;;;;4934840;28;87797;-70
2023/12/18 10:46:03;;;;;;;4.23;1.50;;;13.00;99.20;13.10;101897.00;;;;4928858;28;108729;-72
2023/12/18 10:48:29;;;;;;;2.83;1.87;;;13.00;99.10;13.30;101913.00;;;;4929048;28;87254;-72